»·PEaware :: N8949G KBLI-KPAE

N8949G :: KBLI-KPAE

FLIGHT INFORMATION

Flight Status: Arrived
Operator: Privately registered:
United States
More flights under this callsign
Pilot: Guy T. (43757)
Aircraft: CESSNA 172 SKYHAWK
(C172)
More flights by this aircraft type
Origin: KBLI Bellingham Intl
United States
Destination: KPAE Paine Field/Snohomish Co.
United States
More flights between these airports :: More routes between these airports
Route: KIENO6 CVV PAE
File this flight plan on PilotEdge
Remarks:
Altitude:
(Current/Filed)
4,000ft
Speed:
(Current/Filed)
120kts
Departed: 26-Jul-23 01:40 PM
Arrived: 26-Jul-23 02:26 PM
Distance/Time
Traveled:
54nm/0:46
Distance/Time
To Go:
Arrived

Flight Plot

Page will automatically refresh every two minutes.

Flight plan parsing failed; only flown route is shown


Map Options




Map Legend


Flown Route
Filed Route
Departure Airport
Arrival Airport
Navaid (VOR, NDB)
Fix

Horizontal Profiles

Position Reports

Time Latitude Longitude Heading Altitude Ground
Speed
26-Jul-23 13:26 48.799279 -122.534670 162 153ft 0kts
26-Jul-23 13:27 48.799279 -122.534670 162 153ft 0kts
26-Jul-23 13:28 48.799279 -122.534670 162 153ft 0kts
26-Jul-23 13:29 48.799279 -122.534670 162 153ft 0kts
26-Jul-23 13:30 48.799279 -122.534670 162 153ft 0kts
26-Jul-23 13:31 48.799279 -122.534670 162 153ft 0kts
26-Jul-23 13:32 48.799279 -122.534670 162 153ft 0kts
26-Jul-23 13:33 48.799279 -122.534670 162 153ft 0kts
26-Jul-23 13:34 48.799279 -122.534670 162 153ft 0kts
26-Jul-23 13:35 48.799066 -122.535522 287 154ft 10kts
26-Jul-23 13:36 48.801567 -122.535958 317 148ft 0kts
26-Jul-23 13:37 48.801733 -122.536298 273 148ft 0kts
26-Jul-23 13:38 48.801738 -122.536475 270 148ft 4kts
26-Jul-23 13:39 48.791768 -122.537612 179 425ft 82kts
26-Jul-23 13:40 48.770916 -122.548758 200 1586ft 83kts
26-Jul-23 13:41 48.746221 -122.566548 204 2271ft 100kts
26-Jul-23 13:42 48.718816 -122.581559 182 2811ft 110kts
26-Jul-23 13:43 48.688329 -122.579728 177 3351ft 110kts
26-Jul-23 13:44 48.657780 -122.580500 188 3870ft 110kts
26-Jul-23 13:45 48.627044 -122.590944 193 4078ft 116kts
26-Jul-23 13:47 48.594418 -122.602739 192 4022ft 121kts
26-Jul-23 13:48 48.561727 -122.614709 192 4013ft 120kts
26-Jul-23 13:49 48.528990 -122.626389 194 4004ft 120kts
26-Jul-23 13:50 48.496271 -122.637564 189 3996ft 120kts
26-Jul-23 13:51 48.463614 -122.648541 192 3998ft 120kts
26-Jul-23 13:52 48.430970 -122.656681 160 3954ft 122kts
26-Jul-23 13:53 48.402193 -122.630987 148 3991ft 119kts
26-Jul-23 13:54 48.372271 -122.607840 150 3989ft 119kts
26-Jul-23 13:55 48.342579 -122.585217 154 3985ft 120kts
26-Jul-23 13:56 48.312452 -122.563737 151 3992ft 120kts
26-Jul-23 13:57 48.281508 -122.544658 159 3985ft 120kts
26-Jul-23 13:58 48.249344 -122.530259 165 3989ft 120kts
26-Jul-23 13:59 48.218095 -122.512624 160 3985ft 120kts
26-Jul-23 14:00 48.186154 -122.497549 161 3993ft 120kts
26-Jul-23 14:01 48.154204 -122.482189 162 3996ft 120kts
26-Jul-23 14:02 48.122373 -122.466184 161 4000ft 120kts
26-Jul-23 14:03 48.090530 -122.449985 160 4004ft 120kts
26-Jul-23 14:04 48.058588 -122.434178 160 4009ft 120kts
26-Jul-23 14:05 48.026734 -122.418688 160 4014ft 120kts
26-Jul-23 14:06 47.994958 -122.403120 160 4020ft 120kts
26-Jul-23 14:07 47.963114 -122.387282 160 4026ft 120kts
26-Jul-23 14:08 47.931426 -122.371937 159 3958ft 119kts
26-Jul-23 14:08 47.905106 -122.358572 162 3606ft 119kts
26-Jul-23 14:10 47.868381 -122.340427 161 3032ft 119kts
26-Jul-23 14:11 47.837920 -122.325620 162 2984ft 111kts
26-Jul-23 14:12 47.808755 -122.311964 162 2989ft 108kts
26-Jul-23 14:13 47.780073 -122.297679 160 2989ft 108kts
26-Jul-23 14:13 47.756077 -122.286139 163 2995ft 107kts
26-Jul-23 14:14 47.727151 -122.273189 162 2993ft 108kts
26-Jul-23 14:16 47.693626 -122.258056 161 2996ft 108kts
26-Jul-23 14:17 47.669623 -122.267989 271 2944ft 110kts
26-Jul-23 14:17 47.688965 -122.283754 7 2962ft 106kts
26-Jul-23 14:18 47.718971 -122.281573 359 2981ft 108kts
26-Jul-23 14:19 47.749034 -122.281645 357 3003ft 107kts
26-Jul-23 14:20 47.776245 -122.282607 359 2608ft 93kts
26-Jul-23 14:22 47.806519 -122.283253 359 2054ft 91kts
26-Jul-23 14:22 47.827951 -122.284302 359 2021ft 92kts
26-Jul-23 14:23 47.853958 -122.284361 359 1439ft 94kts
26-Jul-23 14:24 47.880258 -122.285074 1 875ft 96kts
26-Jul-23 14:25 47.903717 -122.285462 359 576ft 40kts
26-Jul-23 14:26 47.906358 -122.284088 43 582ft 0kts
26-Jul-23 14:27 47.907688 -122.280796 81 587ft 15kts

Navigation Log

Ident Type
Flight plan parsing failed, navigation log unavailable